createdAt,value
2019-05-18T00:00:48.061Z,94419.31
2019-05-18T00:03:17.249Z,94413.22
2019-05-18T00:05:46.409Z,94418.23
2019-05-18T00:08:15.551Z,94423.23
2019-05-18T00:10:44.650Z,94423.53
2019-05-18T00:13:13.813Z,94420.95
2019-05-18T00:15:42.938Z,94422.70
2019-05-18T00:18:12.099Z,94415.08
2019-05-18T00:20:41.255Z,94420.63
2019-05-18T00:23:10.394Z,94422.95
2019-05-18T00:25:39.554Z,94417.50
2019-05-18T00:28:08.795Z,94421.48
2019-05-18T00:30:37.903Z,94421.96
2019-05-18T00:33:07.090Z,94418.10
2019-05-18T00:35:36.322Z,94418.58
2019-05-18T00:38:05.443Z,94413.38
2019-05-18T00:40:34.569Z,94421.27
2019-05-18T00:43:03.957Z,94419.05
2019-05-18T00:45:33.083Z,94418.68
2019-05-18T00:48:02.237Z,94416.22
2019-05-18T00:50:31.373Z,94416.28
2019-05-18T00:53:00.482Z,94407.37
2019-05-18T00:55:29.595Z,94407.10
2019-05-18T00:57:58.880Z,94406.23
2019-05-18T01:00:28.045Z,94407.25
2019-05-18T01:02:57.190Z,94408.16
2019-05-18T01:05:26.410Z,94408.11
2019-05-18T01:07:55.530Z,94399.27
2019-05-18T01:10:24.672Z,94401.81
2019-05-18T01:12:53.835Z,94403.03
2019-05-18T01:15:22.958Z,94404.22
2019-05-18T01:17:57.484Z,94402.91
2019-05-18T01:20:23.027Z,94412.50
2019-05-18T01:22:52.157Z,94410.80
2019-05-18T01:25:21.267Z,94410.56
2019-05-18T01:27:50.453Z,94412.31
2019-05-18T01:30:19.852Z,94405.34
2019-05-18T01:32:49.068Z,94399.89
2019-05-18T01:35:18.186Z,94402.17
2019-05-18T01:37:47.348Z,94397.05
2019-05-18T01:40:16.780Z,94397.05
2019-05-18T01:42:45.895Z,94392.12
2019-05-18T01:45:17.321Z,94393.52
2019-05-18T01:47:46.286Z,94388.59
2019-05-18T01:50:15.491Z,94394.64
2019-05-18T01:52:44.590Z,94388.65
2019-05-18T01:55:14.168Z,94387.58
2019-05-18T01:57:43.281Z,94386.09
2019-05-18T02:00:13.077Z,94382.92
2019-05-18T02:02:42.221Z,94387.28
2019-05-18T02:05:11.957Z,94391.48
2019-05-18T02:07:41.106Z,94385.88
2019-05-18T02:10:10.472Z,94386.03
2019-05-18T02:12:39.811Z,94377.28
2019-05-18T02:15:09.529Z,94382.11
2019-05-18T02:17:38.677Z,94383.13
2019-05-18T02:20:08.117Z,94380.71
2019-05-18T02:22:37.294Z,94382.30
2019-05-18T02:25:06.719Z,94382.92
2019-05-18T02:27:36.002Z,94379.36
2019-05-18T02:30:05.847Z,94379.30
2019-05-18T02:32:34.960Z,94370.76
2019-05-18T02:35:04.232Z,94372.59
2019-05-18T02:37:33.355Z,94368.14
2019-05-18T02:40:02.502Z,94368.83
2019-05-18T02:42:34.458Z,94374.41
2019-05-18T02:45:03.633Z,94372.88
2019-05-18T02:47:32.794Z,94379.68
2019-05-18T02:50:01.949Z,94378.95
2019-05-18T02:52:31.206Z,94380.35
2019-05-18T02:55:00.364Z,94378.27
2019-05-18T02:57:29.683Z,94371.65
2019-05-18T02:59:58.837Z,94374.39
2019-05-18T03:02:27.978Z,94370.88
2019-05-18T03:04:57.428Z,94368.70
2019-05-18T03:07:26.565Z,94371.27
2019-05-18T03:09:55.688Z,94376.53
2019-05-18T03:12:24.800Z,94379.89
2019-05-18T03:14:53.901Z,94370.82
2019-05-18T03:17:23.048Z,94378.64
2019-05-18T03:19:52.195Z,94378.33
2019-05-18T03:22:21.499Z,94379.05
2019-05-18T03:24:50.570Z,94380.83
2019-05-18T03:27:19.709Z,94382.82
2019-05-18T03:29:48.835Z,94388.56
2019-05-18T03:32:18.084Z,94385.70
2019-05-18T03:34:47.183Z,94388.53
2019-05-18T03:37:16.342Z,94387.28
2019-05-18T03:39:45.543Z,94390.55
2019-05-18T03:42:14.644Z,94388.02
2019-05-18T03:44:43.756Z,94395.70
2019-05-18T03:47:12.866Z,94395.11
2019-05-18T03:49:42.059Z,94394.53
2019-05-18T03:52:11.234Z,94390.64
2019-05-18T03:54:40.360Z,94396.88
2019-05-18T03:57:09.486Z,94398.33
2019-05-18T03:59:38.622Z,94402.79
2019-05-18T04:02:07.760Z,94400.05
2019-05-18T04:04:36.906Z,94397.13
2019-05-18T04:07:06.040Z,94397.13
2019-05-18T04:09:35.161Z,94404.02
2019-05-18T04:12:04.275Z,94402.77
2019-05-18T04:14:33.368Z,94401.34
2019-05-18T04:17:02.495Z,94407.02
2019-05-18T04:19:45.378Z,94413.40
2019-05-18T04:22:02.476Z,94412.23
2019-05-18T04:24:31.630Z,94413.06
2019-05-18T04:27:00.756Z,94412.92
2019-05-18T04:29:29.913Z,94410.80
2019-05-18T04:31:59.013Z,94414.34
2019-05-18T04:34:28.133Z,94417.42
2019-05-18T04:38:11.510Z,94408.30
2019-05-18T04:40:40.672Z,94411.23
2019-05-18T04:43:09.806Z,94415.77
2019-05-18T04:45:39.072Z,94420.44
2019-05-18T04:48:08.182Z,94424.33
2019-05-18T04:50:37.319Z,94422.61
2019-05-18T04:53:06.557Z,94418.98
2019-05-18T04:55:36.042Z,94425.84
2019-05-18T04:58:05.209Z,94429.02
2019-05-18T05:00:34.325Z,94425.80
2019-05-18T05:03:03.522Z,94429.30
2019-05-18T05:05:32.758Z,94423.21
2019-05-18T05:08:01.968Z,94425.62
2019-05-18T05:10:31.162Z,94425.29
2019-05-18T05:13:00.318Z,94423.55
2019-05-18T05:15:29.438Z,94421.33
2019-05-18T05:17:58.574Z,94423.37
2019-05-18T05:20:27.715Z,94419.70
2019-05-18T05:22:56.901Z,94422.73
2019-05-18T05:25:26.147Z,94420.80
2019-05-18T05:27:55.282Z,94420.59
2019-05-18T05:30:24.492Z,94423.47
2019-05-18T05:32:53.639Z,94425.22
2019-05-18T05:35:22.875Z,94426.79
2019-05-18T05:37:52.055Z,94424.78
2019-05-18T05:40:21.230Z,94432.11
2019-05-18T05:42:50.384Z,94426.43
2019-05-18T05:45:19.526Z,94426.12
2019-05-18T05:47:48.672Z,94428.73
2019-05-18T05:50:17.942Z,94432.19
2019-05-18T05:52:47.134Z,94432.95
2019-05-18T05:55:16.237Z,94437.13
2019-05-18T05:57:45.359Z,94441.19
2019-05-18T06:00:15.968Z,94440.03
2019-05-18T06:02:45.093Z,94438.09
2019-05-18T06:05:14.691Z,94442.41
2019-05-18T06:07:43.802Z,94435.01
2019-05-18T06:10:13.331Z,94434.47
2019-05-18T06:12:42.519Z,94428.41
2019-05-18T06:15:12.093Z,94434.24
2019-05-18T06:17:41.322Z,94432.11
2019-05-18T06:20:11.112Z,94438.00
2019-05-18T06:22:40.250Z,94436.66
2019-05-18T06:25:09.652Z,94430.92
2019-05-18T06:27:38.792Z,94431.14
2019-05-18T06:30:09.320Z,94439.05
2019-05-18T06:32:38.498Z,94438.98
2019-05-18T06:35:07.712Z,94437.30
2019-05-18T06:37:36.897Z,94438.87
2019-05-18T06:40:06.329Z,94436.36
2019-05-18T06:42:35.529Z,94434.27
2019-05-18T06:45:04.930Z,94436.23
2019-05-18T06:47:34.051Z,94432.77
2019-05-18T06:50:03.271Z,94431.88
2019-05-18T06:52:32.572Z,94431.91
2019-05-18T06:55:02.142Z,94428.95
2019-05-18T06:57:32.554Z,94426.16
2019-05-18T07:00:03.162Z,94434.88
2019-05-18T07:02:32.307Z,94431.16
2019-05-18T07:05:01.510Z,94426.98
2019-05-18T07:07:30.700Z,94424.39
2019-05-18T07:09:59.911Z,94422.28
2019-05-18T07:12:29.137Z,94425.86
2019-05-18T07:15:00.304Z,94425.50
2019-05-18T07:17:29.328Z,94428.52
2019-05-18T07:19:58.497Z,94429.66
2019-05-18T07:22:27.639Z,94432.03
2019-05-18T07:24:56.794Z,94430.73
2019-05-18T07:27:25.908Z,94426.92
2019-05-18T07:29:55.148Z,94424.39
2019-05-18T07:32:24.319Z,94422.45
2019-05-18T07:34:53.620Z,94418.96
2019-05-18T07:37:22.782Z,94418.59
2019-05-18T07:39:51.998Z,94415.05
2019-05-18T07:42:21.162Z,94415.61
2019-05-18T07:44:50.361Z,94416.37
2019-05-18T07:47:19.500Z,94422.94
2019-05-18T07:49:48.693Z,94415.36
2019-05-18T07:52:17.874Z,94415.44
2019-05-18T07:54:47.046Z,94413.86
2019-05-18T07:57:16.233Z,94414.80
2019-05-18T07:59:45.391Z,94414.98
2019-05-18T08:02:14.589Z,94419.67
2019-05-18T08:04:43.731Z,94414.50
2019-05-18T08:07:12.870Z,94420.27
2019-05-18T08:09:42.042Z,94416.89
2019-05-18T08:12:11.204Z,94420.17
2019-05-18T08:14:40.359Z,94411.36
2019-05-18T08:17:09.634Z,94409.28
2019-05-18T08:19:38.738Z,94408.53
2019-05-18T08:22:07.866Z,94413.39
2019-05-18T08:24:37.102Z,94407.75
2019-05-18T08:27:06.282Z,94410.73
2019-05-18T08:29:35.536Z,94401.59
2019-05-18T08:32:04.758Z,94404.95
2019-05-18T08:34:33.941Z,94409.61
2019-05-18T08:37:03.184Z,94409.59
2019-05-18T08:39:32.360Z,94413.19
2019-05-18T08:42:01.484Z,94412.82
2019-05-18T08:44:30.617Z,94409.53
2019-05-18T08:46:59.779Z,94408.80
2019-05-18T08:49:28.951Z,94398.28
2019-05-18T08:52:07.976Z,94402.36
2019-05-18T08:54:30.914Z,94404.38
2019-05-18T08:57:00.015Z,94401.03
2019-05-18T08:59:29.346Z,94399.83
2019-05-18T09:01:58.457Z,94393.63
2019-05-18T09:04:27.657Z,94393.38
2019-05-18T09:06:56.792Z,94400.94
2019-05-18T09:09:25.948Z,94394.08
2019-05-18T09:11:55.110Z,94397.73
2019-05-18T09:14:24.336Z,94398.06
2019-05-18T09:16:53.534Z,94396.20
2019-05-18T09:19:22.731Z,94399.06
2019-05-18T09:21:51.892Z,94397.38
2019-05-18T09:24:21.174Z,94396.53
2019-05-18T09:26:50.346Z,94390.45
2019-05-18T09:29:19.477Z,94390.24
2019-05-18T09:31:48.631Z,94388.11
2019-05-18T09:34:17.812Z,94386.39
2019-05-18T09:36:46.964Z,94390.53
2019-05-18T09:39:16.111Z,94385.53
2019-05-18T09:41:45.286Z,94384.48
2019-05-18T09:44:14.436Z,94387.75
2019-05-18T09:46:43.677Z,94387.89
2019-05-18T09:49:12.828Z,94384.66
2019-05-18T09:51:42.016Z,94386.56
2019-05-18T09:54:11.308Z,94382.88
2019-05-18T09:56:40.456Z,94382.45
2019-05-18T09:59:09.733Z,94390.50
2019-05-18T10:01:38.864Z,94386.14
2019-05-18T10:04:08.021Z,94384.72
2019-05-18T10:06:37.188Z,94385.94
2019-05-18T10:09:08.288Z,94384.78
2019-05-18T10:11:38.669Z,94383.16
2019-05-18T10:14:08.092Z,94384.50
2019-05-18T10:16:37.326Z,94378.99
2019-05-18T10:19:06.483Z,94380.78
2019-05-18T10:21:35.632Z,94381.83
2019-05-18T10:24:04.834Z,94378.59
2019-05-18T10:26:33.945Z,94376.89
2019-05-18T10:29:03.068Z,94380.29
2019-05-18T10:31:32.276Z,94374.97
2019-05-18T10:34:01.396Z,94375.16
2019-05-18T10:36:30.521Z,94375.36
2019-05-18T10:38:59.797Z,94372.57
2019-05-18T10:41:28.924Z,94372.88
2019-05-18T10:43:58.116Z,94371.86
2019-05-18T10:46:27.300Z,94373.53
2019-05-18T10:48:56.465Z,94369.88
2019-05-18T10:51:25.680Z,94368.09
2019-05-18T10:53:54.849Z,94363.92
2019-05-18T10:56:24.064Z,94364.53
2019-05-18T10:58:53.150Z,94365.49
2019-05-18T11:01:22.359Z,94365.49
2019-05-18T11:03:51.510Z,94361.78
2019-05-18T11:06:20.614Z,94361.17
2019-05-18T11:08:49.756Z,94356.84
2019-05-18T11:11:18.912Z,94353.48
2019-05-18T11:13:48.093Z,94355.16
2019-05-18T11:16:17.207Z,94348.19
2019-05-18T11:18:46.379Z,94350.02
2019-05-18T11:21:15.537Z,94349.77
2019-05-18T11:23:47.868Z,94345.80
2019-05-18T11:26:15.632Z,94351.66
2019-05-18T11:28:44.954Z,94347.32
2019-05-18T11:31:14.145Z,94345.03
2019-05-18T11:33:43.347Z,94344.11
2019-05-18T11:36:12.515Z,94339.89
2019-05-18T11:38:41.711Z,94336.61
2019-05-18T11:41:10.875Z,94336.61
2019-05-18T11:43:40.052Z,94336.82
2019-05-18T11:46:09.197Z,94336.46
2019-05-18T11:48:38.353Z,94335.86
2019-05-18T11:51:07.983Z,94341.14
2019-05-18T11:53:37.102Z,94337.38
2019-05-18T11:56:06.271Z,94333.53
2019-05-18T11:58:35.428Z,94338.31
2019-05-18T12:01:04.601Z,94339.99
2019-05-18T12:03:33.695Z,94340.09
2019-05-18T12:06:02.875Z,94337.23
2019-05-18T12:08:32.155Z,94339.64
2019-05-18T12:11:01.352Z,94339.03
2019-05-18T12:13:30.658Z,94335.67
2019-05-18T12:15:59.796Z,94331.09
2019-05-18T12:18:29.035Z,94334.08
2019-05-18T12:20:58.213Z,94336.13
2019-05-18T12:23:27.388Z,94333.58
2019-05-18T12:25:56.561Z,94337.54
2019-05-18T12:28:25.737Z,94333.52
2019-05-18T12:30:54.935Z,94331.33
2019-05-18T12:33:24.156Z,94332.38
2019-05-18T12:35:53.374Z,94323.16
2019-05-18T12:38:22.620Z,94325.38
2019-05-18T12:40:51.807Z,94325.16
2019-05-18T12:43:21.008Z,94318.43
2019-05-18T12:45:50.159Z,94315.44
2019-05-18T12:48:19.341Z,94307.80
2019-05-18T12:50:48.496Z,94310.73
2019-05-18T12:53:17.903Z,94313.67
2019-05-18T12:55:47.284Z,94308.09
2019-05-18T12:58:16.496Z,94314.63
2019-05-18T13:00:45.697Z,94308.30
2019-05-18T13:03:14.897Z,94304.24
2019-05-18T13:05:44.141Z,94305.38
2019-05-18T13:08:13.349Z,94306.66
2019-05-18T13:10:42.530Z,94304.70
2019-05-18T13:13:11.785Z,94306.34
2019-05-18T13:15:40.996Z,94304.81
2019-05-18T13:18:10.231Z,94302.00
2019-05-18T13:20:39.446Z,94294.23
2019-05-18T13:23:08.702Z,94298.73
2019-05-18T13:25:38.003Z,94299.97
2019-05-18T13:28:07.177Z,94294.66
2019-05-18T13:30:36.386Z,94290.55
2019-05-18T13:33:05.636Z,94291.26
2019-05-18T13:35:34.791Z,94278.61
2019-05-18T13:38:04.039Z,94283.42
2019-05-18T13:40:33.177Z,94289.23
2019-05-18T13:43:02.418Z,94286.92
2019-05-18T13:45:31.518Z,94283.42
2019-05-18T13:48:00.692Z,94282.09
2019-05-18T13:50:29.988Z,94278.27
2019-05-18T13:52:59.374Z,94278.89
2019-05-18T13:55:28.520Z,94274.91
2019-05-18T13:57:57.664Z,94272.66
2019-05-18T14:00:26.857Z,94271.55
2019-05-18T14:02:55.988Z,94268.11
2019-05-18T14:05:25.258Z,94268.06
2019-05-18T14:07:54.414Z,94266.80
2019-05-18T14:10:23.729Z,94269.11
2019-05-18T14:12:52.963Z,94256.80
2019-05-18T14:15:23.252Z,94257.16
2019-05-18T14:17:52.526Z,94257.14
2019-05-18T14:20:21.801Z,94260.95
2019-05-18T14:22:50.963Z,94261.15
2019-05-18T14:25:20.439Z,94266.24
2019-05-18T14:27:49.751Z,94260.64
2019-05-18T14:30:19.529Z,94262.32
2019-05-18T14:32:48.708Z,94262.66
2019-05-18T14:35:17.963Z,94262.03
2019-05-18T14:37:47.202Z,94255.30
2019-05-18T14:40:16.630Z,94254.72
2019-05-18T14:42:45.755Z,94248.52
2019-05-18T14:45:15.501Z,94255.48
2019-05-18T14:47:44.784Z,94254.36
2019-05-18T14:50:14.747Z,94253.18
2019-05-18T14:52:44.003Z,94259.11
2019-05-18T14:55:13.274Z,94257.02
2019-05-18T14:57:42.529Z,94255.68
2019-05-18T15:00:11.942Z,94248.64
2019-05-18T15:02:41.093Z,94259.20
2019-05-18T15:05:10.822Z,94254.31
2019-05-18T15:07:40.041Z,94253.31
2019-05-18T15:10:10.295Z,94257.19
2019-05-18T15:12:39.505Z,94255.55
2019-05-18T15:15:09.766Z,94249.75
2019-05-18T15:17:39.043Z,94246.20
2019-05-18T15:20:09.316Z,94248.85
2019-05-18T15:22:38.441Z,94241.35
2019-05-18T15:25:07.978Z,94243.19
2019-05-18T15:27:37.146Z,94240.93
2019-05-18T15:30:06.887Z,94232.73
2019-05-18T15:32:36.100Z,94223.86
2019-05-18T15:35:05.976Z,94215.94
2019-05-18T15:37:35.116Z,94226.53
2019-05-18T15:40:04.465Z,94229.34
2019-05-18T15:42:33.646Z,94220.19
2019-05-18T15:45:02.843Z,94225.84
2019-05-18T15:47:32.107Z,94226.41
2019-05-18T15:50:01.261Z,94220.22
2019-05-18T15:52:30.439Z,94225.80
2019-05-18T15:54:59.657Z,94219.77
2019-05-18T15:57:28.823Z,94212.85
2019-05-18T15:59:57.977Z,94217.75
2019-05-18T16:02:27.157Z,94214.27
2019-05-18T16:04:56.323Z,94210.33
2019-05-18T16:07:25.460Z,94211.55
2019-05-18T16:09:54.643Z,94212.73
2019-05-18T16:12:23.806Z,94210.25
2019-05-18T16:14:53.204Z,94211.54
2019-05-18T16:17:22.377Z,94205.86
2019-05-18T16:19:51.515Z,94215.42
2019-05-18T16:22:20.722Z,94215.11
2019-05-18T16:24:49.921Z,94211.47
2019-05-18T16:27:19.063Z,94213.11
2019-05-18T16:29:48.221Z,94213.11
2019-05-18T16:32:17.361Z,94208.09
2019-05-18T16:34:46.599Z,94207.78
2019-05-18T16:37:15.799Z,94209.22
2019-05-18T16:39:45.071Z,94209.18
2019-05-18T16:42:14.247Z,94208.06
2019-05-18T16:44:43.437Z,94205.77
2019-05-18T16:47:12.616Z,94203.50
2019-05-18T16:49:41.849Z,94213.70
2019-05-18T16:52:11.168Z,94206.27
2019-05-18T16:54:40.705Z,94208.17
2019-05-18T16:57:09.899Z,94205.67
2019-05-18T16:59:39.060Z,94206.80
2019-05-18T17:02:08.271Z,94203.14
2019-05-18T17:04:37.531Z,94207.84
2019-05-18T17:07:06.748Z,94206.99
2019-05-18T17:09:35.949Z,94207.99
2019-05-18T17:12:05.163Z,94214.69
2019-05-18T17:14:34.483Z,94214.20
2019-05-18T17:17:03.802Z,94215.61
2019-05-18T17:19:33.042Z,94214.23
2019-05-18T17:22:02.358Z,94216.09
2019-05-18T17:24:31.623Z,94216.28
2019-05-18T17:27:00.892Z,94211.70
2019-05-18T17:29:30.551Z,94216.81
2019-05-18T17:31:59.846Z,94217.84
2019-05-18T17:34:29.674Z,94216.91
2019-05-18T17:36:59.010Z,94219.78
2019-05-18T17:39:28.237Z,94217.91
2019-05-18T17:41:57.424Z,94216.48
2019-05-18T17:44:26.695Z,94217.47
2019-05-18T17:46:55.976Z,94220.34
2019-05-18T17:49:27.097Z,94219.42
2019-05-18T17:51:56.494Z,94220.89
2019-05-18T17:54:25.699Z,94223.17
2019-05-18T17:57:07.486Z,94221.52
2019-05-18T17:59:26.072Z,94218.44
2019-05-18T18:01:55.323Z,94223.09
2019-05-18T18:04:24.574Z,94219.44
2019-05-18T18:06:53.722Z,94220.22
2019-05-18T18:09:23.034Z,94214.14
2019-05-18T18:11:52.360Z,94221.06
2019-05-18T18:14:21.572Z,94225.22
2019-05-18T18:16:50.861Z,94230.09
2019-05-18T18:19:20.134Z,94231.59
2019-05-18T18:21:49.254Z,94234.08
2019-05-18T18:24:19.686Z,94230.57
2019-05-18T18:26:48.942Z,94237.70
2019-05-18T18:29:18.120Z,94238.93
2019-05-18T18:31:47.278Z,94242.31
2019-05-18T18:34:16.519Z,94247.67
2019-05-18T18:36:45.771Z,94245.91
2019-05-18T18:39:15.027Z,94239.89
2019-05-18T18:41:44.337Z,94242.36
2019-05-18T18:44:13.682Z,94239.77
2019-05-18T18:46:42.864Z,94243.64
2019-05-18T18:49:12.005Z,94245.84
2019-05-18T18:51:41.238Z,94252.47
2019-05-18T18:54:12.636Z,94249.38
2019-05-18T18:56:41.255Z,94256.97
2019-05-18T18:59:10.558Z,94254.84
2019-05-18T19:01:39.808Z,94260.28
2019-05-18T19:04:09.013Z,94265.88
2019-05-18T19:06:38.278Z,94262.67
2019-05-18T19:09:07.753Z,94268.19
2019-05-18T19:11:37.063Z,94263.75
2019-05-18T19:14:06.415Z,94269.80
2019-05-18T19:16:35.571Z,94274.05
2019-05-18T19:19:04.765Z,94277.90
2019-05-18T19:21:34.003Z,94282.97
2019-05-18T19:24:03.244Z,94284.66
2019-05-18T19:26:32.467Z,94282.25
2019-05-18T19:29:01.615Z,94285.52
2019-05-18T19:31:30.872Z,94287.08
2019-05-18T19:34:00.112Z,94291.88
2019-05-18T19:36:29.359Z,94290.42
2019-05-18T19:38:58.634Z,94289.92
2019-05-18T19:41:27.840Z,94286.94
2019-05-18T19:43:57.036Z,94288.84
2019-05-18T19:46:26.193Z,94284.86
2019-05-18T19:48:55.367Z,94293.36
2019-05-18T19:51:24.501Z,94288.42
2019-05-18T19:53:53.694Z,94285.75
2019-05-18T19:56:22.897Z,94286.13
2019-05-18T19:58:52.048Z,94292.59
2019-05-18T20:01:21.234Z,94292.55
2019-05-18T20:03:50.396Z,94294.43
2019-05-18T20:06:19.554Z,94286.34
2019-05-18T20:08:48.758Z,94290.89
2019-05-18T20:11:18.044Z,94291.08
2019-05-18T20:13:47.186Z,94294.67
2019-05-18T20:16:16.345Z,94295.98
2019-05-18T20:18:45.484Z,94290.98
2019-05-18T20:21:14.639Z,94298.38
2019-05-18T20:23:43.816Z,94292.48
2019-05-18T20:26:13.000Z,94291.73
2019-05-18T20:28:42.203Z,94288.09
2019-05-18T20:31:11.332Z,94286.86
2019-05-18T20:33:40.504Z,94293.42
2019-05-18T20:36:09.756Z,94289.78
2019-05-18T20:38:38.917Z,94295.46
2019-05-18T20:41:08.064Z,94288.73
2019-05-18T20:43:37.630Z,94296.48
2019-05-18T20:46:06.796Z,94293.24
2019-05-18T20:48:35.972Z,94288.77
2019-05-18T20:51:05.127Z,94294.48
2019-05-18T20:53:34.324Z,94291.41
2019-05-18T20:56:03.531Z,94290.77
2019-05-18T20:58:40.248Z,94292.43
2019-05-18T21:01:03.567Z,94286.13
2019-05-18T21:03:32.704Z,94293.74
2019-05-18T21:06:02.102Z,94286.12
2019-05-18T21:08:31.257Z,94287.25
2019-05-18T21:11:00.465Z,94288.65
2019-05-18T21:13:29.635Z,94285.04
2019-05-18T21:15:58.799Z,94289.44
2019-05-18T21:18:27.969Z,94288.91
2019-05-18T21:20:57.134Z,94283.70
2019-05-18T21:23:26.262Z,94285.23
2019-05-18T21:25:55.390Z,94284.98
2019-05-18T21:28:24.549Z,94283.39
2019-05-18T21:30:53.711Z,94276.82
2019-05-18T21:33:22.879Z,94280.94
2019-05-18T21:35:52.012Z,94277.66
2019-05-18T21:38:21.192Z,94282.54
2019-05-18T21:40:50.714Z,94277.78
2019-05-18T21:43:19.845Z,94280.16
2019-05-18T21:45:48.977Z,94281.77
2019-05-18T21:48:18.101Z,94276.21
2019-05-18T21:50:47.268Z,94275.64
2019-05-18T21:53:16.399Z,94276.81
2019-05-18T21:55:45.600Z,94272.83
2019-05-18T21:58:14.821Z,94278.66
2019-05-18T22:00:46.293Z,94273.42
2019-05-18T22:03:15.488Z,94278.96
2019-05-18T22:05:44.671Z,94266.23
2019-05-18T22:08:13.864Z,94272.08
2019-05-18T22:10:43.039Z,94271.65
2019-05-18T22:13:12.158Z,94266.29
2019-05-18T22:15:41.655Z,94267.31
2019-05-18T22:18:23.649Z,94265.43
2019-05-18T22:20:44.029Z,94259.92
2019-05-18T22:23:12.602Z,94258.81
2019-05-18T22:25:44.784Z,94251.78
2019-05-18T22:28:14.106Z,94252.55
2019-05-18T22:30:43.431Z,94252.91
2019-05-18T22:33:12.619Z,94253.22
2019-05-18T22:35:41.777Z,94251.05
2019-05-18T22:38:10.986Z,94250.61
2019-05-18T22:40:40.137Z,94255.20
2019-05-18T22:43:09.410Z,94255.57
2019-05-18T22:45:38.553Z,94259.24
2019-05-18T22:48:07.740Z,94258.39
2019-05-18T22:50:36.950Z,94254.09
2019-05-18T22:53:06.071Z,94259.34
2019-05-18T22:55:35.156Z,94251.78
2019-05-18T22:58:04.321Z,94245.42
2019-05-18T23:00:33.499Z,94247.66
2019-05-18T23:03:02.671Z,94239.42
2019-05-18T23:05:31.839Z,94233.06
2019-05-18T23:08:00.964Z,94235.12
2019-05-18T23:10:30.142Z,94234.56
2019-05-18T23:12:59.241Z,94229.77
2019-05-18T23:15:28.368Z,94233.89
2019-05-18T23:17:57.525Z,94226.48
2019-05-18T23:20:26.660Z,94226.59
2019-05-18T23:22:55.781Z,94230.71
2019-05-18T23:25:24.926Z,94226.48
2019-05-18T23:27:54.050Z,94226.30
2019-05-18T23:30:23.227Z,94229.02
2019-05-18T23:32:53.759Z,94228.64
2019-05-18T23:35:22.899Z,94224.48
2019-05-18T23:37:52.065Z,94223.44
2019-05-18T23:40:21.200Z,94223.98
2019-05-18T23:42:52.748Z,94221.66
2019-05-18T23:45:21.163Z,94225.66
2019-05-18T23:47:50.298Z,94225.20
2019-05-18T23:50:19.431Z,94227.06
2019-05-18T23:52:48.626Z,94235.37
2019-05-18T23:55:17.751Z,94229.68
2019-05-18T23:57:46.866Z,94221.52
